Time;durP1;ratioP1;P1;durP2;ratioP2;P2;SDS_P1;SDS_P2;PMS_P1;PMS_P2;Temp;Humidity;BMP_temperature;BMP_pressure;BME280_temperature;BME280_humidity;BME280_pressure;Samples;Min_cycle;Max_cycle;Signal;HPM_P1;HPM_P2
2024/02/09 00:01:10;;;;;;;8.65;4.85;;;;;;;9.39;100.00;98664.66;6311811;28;20049;-79
2024/02/09 00:04:14;;;;;;;11.68;4.88;;;;;;;9.40;100.00;98666.31;6278748;28;20082;-79
2024/02/09 00:07:17;;;;;;;11.13;4.53;;;;;;;9.27;100.00;98671.66;6303610;28;20044;-78
2024/02/09 00:10:19;;;;;;;8.40;5.00;;;;;;;9.38;100.00;98660.41;6295868;28;20078;-79
2024/02/09 00:13:19;;;;;;;7.65;4.38;;;;;;;9.38;100.00;98664.78;6301253;28;20044;-80
2024/02/09 00:16:20;;;;;;;10.07;4.68;;;;;;;9.41;100.00;98652.34;6311205;28;20060;-80
2024/02/09 00:19:22;;;;;;;9.10;4.85;;;;;;;9.29;100.00;98640.31;6318034;28;20144;-78
2024/02/09 00:22:22;;;;;;;10.85;4.55;;;;;;;9.33;100.00;98654.72;6303237;28;20162;-78
2024/02/09 00:25:23;;;;;;;11.27;4.45;;;;;;;9.28;100.00;98654.25;6292418;28;20076;-84
2024/02/09 00:28:24;;;;;;;8.30;4.32;;;;;;;9.43;100.00;98650.47;6302494;28;20135;-84
2024/02/09 00:31:25;;;;;;;13.23;4.70;;;;;;;9.30;100.00;98646.34;6296278;28;20499;-84
2024/02/09 00:34:26;;;;;;;7.60;4.78;;;;;;;9.29;100.00;98650.72;6315049;28;20055;-85
2024/02/09 00:37:27;;;;;;;24.23;5.20;;;;;;;9.29;100.00;98666.34;6291907;28;20471;-84
2024/02/09 00:40:33;;;;;;;12.63;5.75;;;;;;;9.50;100.00;98658.63;6298168;28;20059;-77
2024/02/09 00:43:34;;;;;;;12.55;5.45;;;;;;;9.47;100.00;98645.81;6302238;28;20052;-78
2024/02/09 00:46:42;;;;;;;9.63;4.45;;;;;;;9.43;100.00;98647.00;6317015;28;20048;-79
2024/02/09 00:49:43;;;;;;;9.57;4.30;;;;;;;9.46;100.00;98644.19;6310706;28;20561;-84
2024/02/09 00:52:48;;;;;;;17.58;6.47;;;;;;;9.46;100.00;98641.59;6324832;28;20044;-84
2024/02/09 00:55:49;;;;;;;9.05;4.45;;;;;;;9.45;100.00;98634.69;6296092;28;20086;-84
2024/02/09 00:58:50;;;;;;;12.32;5.03;;;;;;;9.47;100.00;98635.41;6325694;28;20060;-84
2024/02/09 01:01:53;;;;;;;10.77;4.40;;;;;;;9.54;100.00;98638.38;6333444;28;20087;-84
2024/02/09 01:04:56;;;;;;;9.82;4.85;;;;;;;9.30;100.00;98639.34;6303033;28;20104;-78
2024/02/09 01:07:57;;;;;;;11.00;4.45;;;;;;;9.46;100.00;98637.19;6304548;28;20048;-79
2024/02/09 01:10:58;;;;;;;10.27;4.47;;;;;;;9.45;100.00;98632.94;6322287;28;20063;-79
2024/02/09 02:46:53;;;;;;;9.30;4.13;;;;;;;8.62;100.00;98626.31;6321360;28;20059;-85
2024/02/09 03:06:41;;;;;;;10.65;4.10;;;;;;;8.69;100.00;98642.31;6274014;28;20580;-78
2024/02/09 03:09:43;;;;;;;12.43;4.72;;;;;;;8.68;100.00;98644.06;6282871;28;20060;-79
2024/02/09 03:12:44;;;;;;;8.88;4.25;;;;;;;8.71;100.00;98639.56;6303594;28;20123;-79
2024/02/09 03:15:52;;;;;;;12.45;4.30;;;;;;;8.70;100.00;98638.75;6303066;28;20047;-79
2024/02/09 03:18:53;;;;;;;10.98;5.10;;;;;;;8.70;100.00;98633.53;6320636;28;20622;-85
2024/02/09 03:21:54;;;;;;;16.15;4.95;;;;;;;8.73;100.00;98628.13;6287379;28;20048;-85
2024/02/09 03:24:55;;;;;;;9.52;5.03;;;;;;;8.54;100.00;98633.88;6297694;28;20163;-85
2024/02/09 03:27:56;;;;;;;7.60;3.22;;;;;;;8.56;100.00;98624.19;6316178;28;20386;-85
2024/02/09 03:30:56;;;;;;;10.23;5.32;;;;;;;8.50;100.00;98629.84;6295673;28;20059;-84
2024/02/09 03:33:58;;;;;;;8.40;3.85;;;;;;;8.51;100.00;98630.69;6288959;28;20170;-86
2024/02/09 03:36:58;;;;;;;8.63;4.50;;;;;;;8.55;100.00;98630.34;6319483;28;20385;-85
2024/02/09 03:40:00;;;;;;;8.52;4.25;;;;;;;8.38;100.00;98617.72;6284075;28;20056;-84
2024/02/09 03:43:03;;;;;;;11.20;4.90;;;;;;;8.34;100.00;98614.56;6300408;28;20568;-85
2024/02/09 03:46:04;;;;;;;7.55;3.92;;;;;;;8.40;100.00;98626.25;6315090;28;20079;-79
2024/02/09 03:49:05;;;;;;;8.52;5.03;;;;;;;8.56;100.00;98629.38;6299293;28;20499;-78
2024/02/09 03:52:06;;;;;;;8.40;4.22;;;;;;;8.45;100.00;98622.41;6309679;28;20079;-78
2024/02/09 03:55:07;;;;;;;9.73;4.67;;;;;;;8.44;100.00;98615.56;6294021;28;20039;-86
2024/02/09 03:58:08;;;;;;;10.93;5.40;;;;;;;8.43;100.00;98613.06;6301446;28;20059;-85
2024/02/09 04:01:11;;;;;;;15.23;5.53;;;;;;;8.59;100.00;98623.97;6294880;28;20087;-85
2024/02/09 04:04:12;;;;;;;7.85;4.47;;;;;;;8.56;100.00;98613.78;6319487;28;20093;-84
2024/02/09 04:07:22;;;;;;;8.82;4.80;;;;;;;8.38;100.00;98613.38;6321411;28;20056;-79
2024/02/09 04:10:23;;;;;;;8.98;4.05;;;;;;;8.38;100.00;98607.34;6309536;28;20048;-85
2024/02/09 04:13:24;;;;;;;11.70;4.97;;;;;;;8.26;100.00;98602.13;6296925;28;20048;-78
2024/02/09 04:16:26;;;;;;;12.32;4.53;;;;;;;8.25;100.00;98613.44;6308083;28;20157;-84
2024/02/09 04:19:29;;;;;;;7.80;4.72;;;;;;;8.18;100.00;98598.44;6298084;28;20090;-86
2024/02/09 04:22:30;;;;;;;8.45;4.05;;;;;;;8.18;100.00;98601.03;6300446;28;20098;-85
2024/02/09 04:25:31;;;;;;;12.40;4.80;;;;;;;8.20;100.00;98614.75;6295871;28;20118;-79
2024/02/09 04:28:31;;;;;;;12.05;5.30;;;;;;;8.19;100.00;98624.28;6302728;28;20079;-83
2024/02/09 04:31:32;;;;;;;6.97;4.15;;;;;;;8.16;100.00;98619.34;6316087;28;20085;-79
2024/02/09 04:34:33;;;;;;;7.43;4.15;;;;;;;8.15;100.00;98615.06;6313627;28;20447;-79
2024/02/09 04:37:33;;;;;;;6.00;4.15;;;;;;;8.12;100.00;98619.69;6299628;28;20446;-86
2024/02/09 04:40:34;;;;;;;10.57;5.03;;;;;;;8.13;100.00;98616.94;6317851;28;20080;-85
2024/02/09 04:43:37;;;;;;;8.65;5.25;;;;;;;8.15;100.00;98624.63;6288525;28;20051;-78
2024/02/09 04:46:44;;;;;;;8.85;4.38;;;;;;;8.26;100.00;98628.09;6289126;28;20052;-79
2024/02/09 04:49:49;;;;;;;8.13;4.50;;;;;;;8.10;100.00;98617.19;6306603;28;20044;-79
2024/02/09 04:52:50;;;;;;;11.13;4.68;;;;;;;8.07;100.00;98620.00;6285965;28;20048;-79
2024/02/09 04:55:50;;;;;;;7.63;4.40;;;;;;;8.01;100.00;98630.84;6295626;28;20091;-79
2024/02/09 04:58:52;;;;;;;14.88;4.70;;;;;;;8.10;100.00;98637.16;6299031;28;20105;-80
2024/02/09 05:01:53;;;;;;;8.73;4.22;;;;;;;8.04;100.00;98630.63;6290706;28;20044;-86
2024/02/09 05:04:56;;;;;;;9.98;5.28;;;;;;;7.97;100.00;98622.47;6298758;28;20055;-85
2024/02/09 05:07:59;;;;;;;10.63;5.10;;;;;;;8.10;100.00;98634.56;6317392;28;20048;-79
2024/02/09 05:11:00;;;;;;;12.40;4.88;;;;;;;7.98;100.00;98644.88;6299299;28;20452;-85
2024/02/09 05:14:00;;;;;;;6.47;3.83;;;;;;;8.03;100.00;98623.75;6277555;28;20053;-86
2024/02/09 05:17:01;;;;;;;10.80;4.63;;;;;;;7.95;100.00;98629.53;6277510;28;20048;-86
2024/02/09 05:20:03;;;;;;;17.90;5.53;;;;;;;7.98;100.00;98623.28;6277511;28;20057;-85
2024/02/09 05:23:04;;;;;;;7.82;3.97;;;;;;;7.87;100.00;98619.69;6294048;28;20040;-80
2024/02/09 05:26:10;;;;;;;13.52;6.45;;;;;;;7.81;100.00;98625.34;6286553;28;20090;-87
2024/02/09 05:29:11;;;;;;;8.68;5.55;;;;;;;7.91;100.00;98615.13;6295591;28;20052;-87
2024/02/09 05:32:11;;;;;;;24.90;10.43;;;;;;;7.73;100.00;98616.44;6277803;28;20048;-79
2024/02/09 05:35:14;;;;;;;11.60;5.82;;;;;;;7.77;100.00;98612.69;6296736;28;20044;-79
2024/02/09 05:38:15;;;;;;;17.60;6.60;;;;;;;7.77;100.00;98620.50;6295646;28;20048;-79
2024/02/09 05:41:17;;;;;;;9.38;5.10;;;;;;;7.78;100.00;98616.94;6302039;28;20055;-80
2024/02/09 05:44:18;;;;;;;12.65;5.35;;;;;;;7.67;100.00;98617.72;6306733;28;20048;-86
2024/02/09 05:47:19;;;;;;;11.65;5.68;;;;;;;7.69;100.00;98628.00;6324726;28;20127;-78
2024/02/09 05:50:22;;;;;;;7.55;4.40;;;;;;;7.70;100.00;98616.66;6306549;28;20483;-85
2024/02/09 05:53:23;;;;;;;7.05;4.22;;;;;;;7.61;100.00;98624.16;6308755;28;20493;-91
2024/02/09 05:56:29;;;;;;;11.93;5.45;;;;;;;7.66;100.00;98627.28;6308674;28;20102;-91
2024/02/09 05:59:32;;;;;;;13.82;5.10;;;;;;;7.58;100.00;98628.78;6309669;28;20071;-90
2024/02/09 06:02:33;;;;;;;12.45;4.15;;;;;;;7.71;100.00;98615.72;6304594;28;20537;-92
2024/02/09 06:05:40;;;;;;;6.88;3.72;;;;;;;7.62;100.00;98623.25;6311067;28;20048;-91
2024/02/09 06:08:43;;;;;;;9.20;3.92;;;;;;;7.67;100.00;98626.31;6300314;28;20048;-83
2024/02/09 06:11:46;;;;;;;7.65;3.83;;;;;;;7.74;100.00;98620.69;6312747;28;20526;-81
2024/02/09 06:14:49;;;;;;;8.27;4.07;;;;;;;7.78;100.00;98628.16;6298919;28;20049;-82
2024/02/09 06:17:50;;;;;;;14.23;4.47;;;;;;;7.67;100.00;98613.34;6301651;28;20049;-92
2024/02/09 06:20:52;;;;;;;7.25;3.33;;;;;;;7.85;100.00;98620.75;6284368;28;20477;-91
2024/02/09 06:23:56;;;;;;;8.00;3.92;;;;;;;7.85;100.00;98623.34;6282385;28;20075;-83
2024/02/09 06:26:57;;;;;;;11.18;3.80;;;;;;;7.90;100.00;98631.63;6280995;28;20047;-83
2024/02/09 06:29:58;;;;;;;9.85;3.67;;;;;;;7.96;100.00;98623.38;6300640;28;20052;-91
2024/02/09 06:33:00;;;;;;;6.60;3.30;;;;;;;8.12;100.00;98623.09;6283577;28;20067;-91
2024/02/09 06:36:01;;;;;;;5.73;3.20;;;;;;;8.20;100.00;98622.53;6282911;28;20469;-83
2024/02/09 06:39:03;;;;;;;9.93;3.88;;;;;;;8.22;100.00;98618.88;6299448;28;20048;-90
2024/02/09 06:42:04;;;;;;;8.40;3.35;;;;;;;8.31;100.00;98634.75;6281964;28;20044;-83
2024/02/09 06:45:05;;;;;;;6.15;3.78;;;;;;;8.38;100.00;98625.53;6280488;28;20113;-84
2024/02/09 06:48:07;;;;;;;8.75;3.80;;;;;;;8.50;100.00;98629.03;6281656;28;20052;-83
2024/02/09 06:51:09;;;;;;;10.65;3.75;;;;;;;8.59;100.00;98633.53;6280378;28;20048;-83
2024/02/09 06:54:10;;;;;;;4.80;2.95;;;;;;;8.51;100.00;98631.50;6280246;28;20044;-82
2024/02/09 06:57:11;;;;;;;8.40;4.22;;;;;;;8.67;100.00;98619.00;6280034;28;20447;-83
2024/02/09 07:00:15;;;;;;;7.53;3.15;;;;;;;8.63;100.00;98615.00;6280194;28;20056;-82
2024/02/09 07:03:17;;;;;;;10.23;3.72;;;;;;;8.78;100.00;98635.56;6280256;28;20044;-90
2024/02/09 07:06:22;;;;;;;5.70;3.17;;;;;;;8.87;100.00;98625.31;6281832;28;20516;-86
2024/02/09 07:09:24;;;;;;;3.80;2.45;;;;;;;8.80;100.00;98631.91;6281569;28;20408;-86
2024/02/09 07:12:27;;;;;;;8.70;4.05;;;;;;;8.96;100.00;98639.38;6299237;28;20053;-87
2024/02/09 07:15:29;;;;;;;8.05;3.13;;;;;;;8.87;100.00;98627.06;6281366;28;20488;-88
2024/02/09 07:18:31;;;;;;;10.75;3.60;;;;;;;9.09;100.00;98639.25;6299482;28;20098;-91
2024/02/09 07:21:32;;;;;;;6.97;3.25;;;;;;;9.10;99.78;98632.25;6281530;28;20520;-86
2024/02/09 07:24:32;;;;;;;6.68;2.85;;;;;;;9.15;99.42;98619.72;6314964;28;20485;-88
2024/02/09 07:27:33;;;;;;;8.15;3.15;;;;;;;9.16;97.91;98601.41;6281881;28;20106;-89
2024/02/09 07:30:34;;;;;;;7.60;2.45;;;;;;;9.46;97.14;98620.75;6281729;28;20063;-89
2024/02/09 07:33:37;;;;;;;4.65;3.25;;;;;;;9.57;96.68;98623.31;6281550;28;20037;-81
2024/02/09 07:36:39;;;;;;;5.43;2.92;;;;;;;9.58;95.44;98611.16;6296900;28;20482;-80
2024/02/09 07:39:39;;;;;;;4.93;2.65;;;;;;;9.60;95.05;98622.28;6279386;28;20044;-82
2024/02/09 07:42:40;;;;;;;8.02;2.95;;;;;;;9.80;94.03;98610.22;6280236;28;20098;-87
2024/02/09 07:45:43;;;;;;;4.35;2.50;;;;;;;9.91;93.75;98615.41;6298703;28;20052;-91
2024/02/09 07:48:47;;;;;;;6.68;3.55;;;;;;;10.03;93.20;98616.19;6298828;28;20048;-90
2024/02/09 07:51:50;;;;;;;5.93;2.80;;;;;;;10.08;93.06;98621.84;6280598;28;20467;-90
2024/02/09 07:54:53;;;;;;;8.82;3.65;;;;;;;10.30;92.50;98620.94;6280752;28;20489;-90
2024/02/09 07:57:54;;;;;;;10.07;3.53;;;;;;;10.32;91.20;98624.25;6280415;28;20492;-88
2024/02/09 08:00:54;;;;;;;7.85;4.03;;;;;;;10.37;91.39;98627.31;6280486;28;20048;-92
2024/02/09 08:03:57;;;;;;;9.23;4.22;;;;;;;10.44;90.46;98631.06;6280156;28;20563;-87
2024/02/09 08:07:01;;;;;;;11.65;4.93;;;;;;;10.49;90.12;98618.47;6279804;28;20049;-85
2024/02/09 08:10:03;;;;;;;11.23;4.32;;;;;;;10.61;89.31;98623.63;6278367;28;20605;-81
2024/02/09 08:13:10;;;;;;;12.60;3.97;;;;;;;10.49;88.47;98618.47;6279643;28;20550;-82
2024/02/09 08:16:11;;;;;;;7.55;3.40;;;;;;;10.53;88.42;98621.66;6279699;28;20428;-81
2024/02/09 08:19:11;;;;;;;8.00;3.58;;;;;;;10.52;88.31;98625.19;6296503;28;20067;-89
2024/02/09 08:22:12;;;;;;;9.95;3.85;;;;;;;10.49;88.03;98610.63;6279896;28;20051;-92
2024/02/09 08:25:14;;;;;;;5.57;3.42;;;;;;;10.45;88.52;98624.88;6278896;28;20070;-84
2024/02/09 08:28:17;;;;;;;23.92;13.13;;;;;;;10.63;87.19;98613.88;6278065;28;20048;-83
2024/02/09 08:31:22;;;;;;;15.48;8.00;;;;;;;10.78;86.41;98620.41;6296030;28;20055;-82
2024/02/09 08:34:23;;;;;;;12.95;3.08;;;;;;;10.63;86.85;98604.28;6278436;28;20052;-87
2024/02/09 08:37:24;;;;;;;10.40;5.63;;;;;;;10.77;85.86;98610.09;6297627;28;20055;-86
2024/02/09 08:40:27;;;;;;;9.80;3.75;;;;;;;10.85;85.87;98605.91;6279571;28;20053;-90
2024/02/09 08:43:29;;;;;;;6.13;3.55;;;;;;;10.89;85.59;98609.03;6297300;28;20049;-85
2024/02/09 08:46:30;;;;;;;16.50;4.30;;;;;;;10.77;85.83;98612.69;6278427;28;20064;-87
2024/02/09 08:49:33;;;;;;;4.28;3.10;;;;;;;10.76;85.66;98604.06;6278786;28;20059;-81
2024/02/09 08:52:34;;;;;;;5.30;3.47;;;;;;;11.09;85.38;98609.97;6295484;28;20480;-83
2024/02/09 08:55:35;;;;;;;13.18;4.22;;;;;;;11.01;85.68;98609.78;6295444;28;20117;-81
2024/02/09 08:58:38;;;;;;;7.68;3.75;;;;;;;10.97;85.77;98621.44;6278507;28;20539;-82
2024/02/09 09:01:39;;;;;;;10.05;4.18;;;;;;;10.88;85.02;98618.66;6279291;28;20045;-80
2024/02/09 09:04:39;;;;;;;8.38;4.57;;;;;;;11.07;85.90;98619.72;6295486;28;20167;-83
2024/02/09 09:07:40;;;;;;;6.32;3.40;;;;;;;10.88;85.97;98618.66;6295472;28;20185;-83
2024/02/09 09:10:41;;;;;;;8.13;4.28;;;;;;;10.97;86.37;98622.28;6277799;28;20423;-84
2024/02/09 09:13:42;;;;;;;8.18;3.45;;;;;;;10.79;86.48;98613.41;6282231;28;20131;-84
2024/02/09 09:16:44;;;;;;;9.82;4.15;;;;;;;11.05;86.08;98629.44;6282653;28;20055;-83
2024/02/09 09:19:45;;;;;;;11.20;5.35;;;;;;;11.03;85.92;98629.56;6300194;28;20110;-84
2024/02/09 09:22:45;;;;;;;6.57;3.47;;;;;;;11.05;85.65;98630.28;6283758;28;20095;-90
2024/02/09 09:25:46;;;;;;;11.45;3.53;;;;;;;11.03;86.04;98624.34;6300604;28;20057;-81
2024/02/09 09:28:48;;;;;;;6.53;4.10;;;;;;;11.21;85.76;98624.56;6282025;28;20049;-81
2024/02/09 09:31:50;;;;;;;8.80;4.13;;;;;;;11.27;85.57;98613.59;6282160;28;20048;-82
2024/02/09 09:34:51;;;;;;;14.05;5.47;;;;;;;11.26;84.86;98617.19;6281918;28;20063;-84
2024/02/09 09:37:52;;;;;;;6.38;4.07;;;;;;;11.39;84.18;98621.34;6282145;28;20048;-82
2024/02/09 09:40:54;;;;;;;7.95;4.15;;;;;;;11.53;84.12;98613.13;6281963;28;20056;-83
2024/02/09 09:43:56;;;;;;;;;;;;;;;11.74;83.25;98612.19;6282359;28;20095;-82
2024/02/09 09:46:59;;;;;;;14.20;6.20;;;;;;;12.01;82.21;98601.09;6315333;28;19920;-84
2024/02/09 09:50:08;;;;;;;14.38;5.95;;;;;;;11.83;82.74;98600.91;6281612;28;20557;-82
2024/02/09 09:53:13;;;;;;;10.50;4.85;;;;;;;11.89;81.49;98597.78;6281929;28;20048;-82
2024/02/09 09:56:15;;;;;;;13.23;4.93;;;;;;;12.07;81.58;98593.50;6299272;28;20092;-85
2024/02/09 09:59:18;;;;;;;8.40;4.38;;;;;;;12.09;81.62;98593.38;6281663;28;20052;-82
2024/02/09 10:02:20;;;;;;;10.98;4.22;;;;;;;12.18;81.42;98587.28;6299105;28;20044;-81
2024/02/09 10:05:21;;;;;;;11.60;4.20;;;;;;;12.35;80.70;98593.59;6281204;28;20496;-83
2024/02/09 10:08:22;;;;;;;12.57;4.03;;;;;;;12.31;79.91;98594.84;6281216;28;20055;-83
2024/02/09 10:11:24;;;;;;;7.57;3.60;;;;;;;12.34;80.50;98589.34;6281264;28;20036;-83
2024/02/09 10:14:26;;;;;;;6.57;3.37;;;;;;;12.16;81.72;98596.25;6281330;28;20097;-82
2024/02/09 10:17:31;;;;;;;12.07;4.00;;;;;;;12.07;81.75;98583.03;6281148;28;20285;-82
2024/02/09 10:20:32;;;;;;;4.97;3.03;;;;;;;12.06;81.90;98578.75;6281062;28;20055;-83
2024/02/09 10:23:34;;;;;;;8.87;3.97;;;;;;;12.18;81.97;98576.03;6281098;28;20511;-89
2024/02/09 10:26:36;;;;;;;7.38;3.28;;;;;;;12.06;81.88;98570.91;6300179;28;20281;-90
2024/02/09 10:29:37;;;;;;;6.70;3.28;;;;;;;12.15;82.42;98565.81;6282819;28;20174;-91
2024/02/09 10:32:40;;;;;;;4.03;2.67;;;;;;;12.19;81.83;98565.44;6299795;28;20570;-90
2024/02/09 10:35:40;;;;;;;9.63;3.33;;;;;;;12.21;81.50;98555.66;6282752;28;20443;-85
2024/02/09 10:38:42;;;;;;;8.02;3.38;;;;;;;12.43;81.04;98551.88;6282280;28;20102;-91
2024/02/09 10:41:48;;;;;;;7.60;3.97;;;;;;;12.56;80.61;98545.50;6283382;28;20040;-90
2024/02/09 10:44:54;;;;;;;6.13;3.35;;;;;;;12.54;80.98;98547.44;6282664;28;20067;-89
2024/02/09 10:47:55;;;;;;;11.15;3.33;;;;;;;12.61;80.50;98540.66;6283126;28;20049;-85
2024/02/09 10:50:57;;;;;;;6.00;3.17;;;;;;;12.69;80.25;98530.31;6282890;28;20057;-88
2024/02/09 10:54:22;;;;;;;12.40;3.90;;;;;;;12.48;80.22;98527.91;6281587;28;20052;-90
2024/02/09 10:57:28;;;;;;;8.35;3.63;;;;;;;12.47;80.19;98532.31;6281309;28;20086;-86
2024/02/09 11:00:31;;;;;;;7.07;3.20;;;;;;;12.51;80.07;98525.00;6282072;28;20049;-87
2024/02/09 11:03:32;;;;;;;7.65;3.78;;;;;;;12.60;79.80;98513.69;6282048;28;20044;-88
2024/02/09 11:06:33;;;;;;;10.48;3.92;;;;;;;12.71;79.60;98515.28;6282322;28;20560;-89
2024/02/09 11:09:36;;;;;;;6.47;3.88;;;;;;;12.67;80.68;98503.47;6281486;28;20512;-88
2024/02/09 11:12:37;;;;;;;11.88;4.40;;;;;;;12.75;79.55;98490.47;6299143;28;20055;-92
2024/02/09 11:15:38;;;;;;;9.70;3.50;;;;;;;12.87;80.32;98494.53;6281608;28;20049;-92
2024/02/09 11:18:39;;;;;;;6.35;2.90;;;;;;;12.99;79.64;98483.84;6263585;28;20111;-90
2024/02/09 11:21:47;;;;;;;6.50;3.25;;;;;;;13.21;79.84;98491.28;6249622;28;20045;-92
2024/02/09 11:24:48;;;;;;;9.68;3.83;;;;;;;13.20;79.47;98494.06;6249117;28;20184;-88
2024/02/09 11:27:51;;;;;;;11.27;3.35;;;;;;;13.10;79.61;98488.91;6250078;28;20045;-92
2024/02/09 11:30:56;;;;;;;11.82;3.63;;;;;;;13.01;79.49;98488.00;6250009;28;20497;-89
2024/02/09 11:34:00;;;;;;;13.60;3.88;;;;;;;12.86;80.58;98478.97;6246662;28;20140;-82
2024/02/09 11:37:02;;;;;;;5.85;3.38;;;;;;;12.85;81.23;98474.72;6246425;28;20049;-81
2024/02/09 11:40:06;;;;;;;8.90;4.03;;;;;;;12.88;81.11;98471.81;6247476;28;20079;-82
2024/02/09 11:43:07;;;;;;;9.20;4.10;;;;;;;12.91;82.07;98476.75;6246094;28;20477;-84
2024/02/09 11:46:08;;;;;;;6.57;4.00;;;;;;;12.86;82.37;98478.97;6245844;28;20060;-83
2024/02/09 11:49:12;;;;;;;8.47;3.00;;;;;;;12.96;83.08;98473.69;6246261;28;20060;-82
2024/02/09 11:52:13;;;;;;;14.13;3.45;;;;;;;12.77;85.87;98470.22;6245896;28;20088;-81
2024/02/09 11:55:16;;;;;;;6.82;3.42;;;;;;;12.81;87.99;98484.66;6246914;28;20453;-80
2024/02/09 11:58:17;;;;;;;7.72;4.00;;;;;;;12.66;90.94;98486.09;6245790;28;20054;-82
2024/02/09 12:01:22;;;;;;;7.78;4.03;;;;;;;12.76;94.59;98480.81;6245651;28;20052;-84
2024/02/09 12:04:24;;;;;;;12.73;4.38;;;;;;;12.43;98.29;98480.41;6245812;28;20059;-81
2024/02/09 12:07:25;;;;;;;9.20;3.80;;;;;;;12.38;100.00;98478.25;6245750;28;20106;-89
2024/02/09 12:10:28;;;;;;;9.63;3.20;;;;;;;12.33;100.00;98480.44;6247720;28;20102;-88
2024/02/09 12:13:29;;;;;;;8.15;4.10;;;;;;;12.44;99.74;98467.22;6247192;28;20053;-91
2024/02/09 12:16:30;;;;;;;5.25;3.35;;;;;;;12.64;98.16;98473.19;6246015;28;20100;-84
2024/02/09 12:19:31;;;;;;;12.85;4.03;;;;;;;12.70;96.89;98456.91;6247492;28;20546;-87
2024/02/09 12:22:34;;;;;;;8.45;3.13;;;;;;;12.70;96.45;98463.91;6246977;28;20049;-82
2024/02/09 12:25:40;;;;;;;9.55;3.83;;;;;;;12.82;95.39;98469.78;6246596;28;20054;-91
2024/02/09 12:28:41;;;;;;;3.83;2.70;;;;;;;12.93;94.74;98473.97;6246793;28;20057;-83
2024/02/09 12:31:47;;;;;;;9.85;2.80;;;;;;;13.04;95.36;98458.88;6247662;28;20139;-92
2024/02/09 12:34:50;;;;;;;7.32;3.40;;;;;;;13.10;93.62;98466.16;6248205;28;20148;-83
2024/02/09 12:37:52;;;;;;;8.07;2.92;;;;;;;13.02;93.97;98463.44;6245082;28;20060;-84
2024/02/09 12:40:56;;;;;;;4.80;2.33;;;;;;;13.05;92.19;98460.56;6245078;28;20050;-84
2024/02/09 12:44:01;;;;;;;8.13;2.75;;;;;;;13.15;90.73;98467.50;6244835;28;20555;-84
2024/02/09 12:47:03;;;;;;;5.35;2.53;;;;;;;13.07;90.37;98465.63;6245235;28;20103;-83
2024/02/09 12:50:04;;;;;;;6.68;2.60;;;;;;;13.08;89.78;98452.38;6245529;28;20516;-84
2024/02/09 12:53:05;;;;;;;5.55;2.40;;;;;;;13.04;88.37;98452.84;6245251;28;20505;-91
2024/02/09 12:56:06;;;;;;;6.20;2.63;;;;;;;13.18;87.85;98446.25;6246017;28;20111;-91
2024/02/09 12:59:07;;;;;;;5.47;2.70;;;;;;;13.26;88.63;98451.56;6245857;28;20091;-84
2024/02/09 13:02:11;;;;;;;5.05;2.47;;;;;;;13.28;90.22;98444.38;6244963;28;20462;-84
2024/02/09 13:05:12;;;;;;;6.78;2.90;;;;;;;12.97;93.82;98442.13;6244782;28;20099;-84
2024/02/09 13:08:13;;;;;;;9.35;3.10;;;;;;;12.99;94.38;98440.19;6244611;28;20045;-83
2024/02/09 13:11:15;;;;;;;8.10;2.95;;;;;;;13.07;93.69;98447.28;6246107;28;20080;-84
2024/02/09 13:14:17;;;;;;;8.93;3.17;;;;;;;13.00;94.17;98444.44;6245428;28;20138;-90
2024/02/09 13:17:19;;;;;;;5.35;2.95;;;;;;;12.94;94.24;98441.59;6246595;28;20057;-83
2024/02/09 13:20:20;;;;;;;5.85;2.88;;;;;;;13.02;95.21;98444.31;6244436;28;20065;-83
2024/02/09 13:23:23;;;;;;;8.93;3.10;;;;;;;12.94;97.68;98441.59;6244495;28;20096;-84
2024/02/09 13:26:24;;;;;;;4.85;2.55;;;;;;;12.83;100.00;98438.22;6245948;28;20061;-83
2024/02/09 13:29:26;;;;;;;5.68;2.55;;;;;;;12.68;100.00;98439.69;6244753;28;20099;-82
2024/02/09 13:32:27;;;;;;;4.57;2.93;;;;;;;12.65;100.00;98453.06;6246121;28;20059;-84
2024/02/09 13:35:30;;;;;;;4.85;2.70;;;;;;;12.47;100.00;98445.16;6244589;28;20353;-82
2024/02/09 13:38:30;;;;;;;8.05;3.00;;;;;;;12.48;100.00;98442.41;6244766;28;20052;-84
2024/02/09 13:41:33;;;;;;;8.95;3.05;;;;;;;12.34;100.00;98445.50;6246152;28;20153;-83
2024/02/09 13:44:37;;;;;;;6.05;3.40;;;;;;;12.36;100.00;98446.19;6246058;28;20057;-86
2024/02/09 13:47:38;;;;;;;5.78;3.15;;;;;;;12.32;100.00;98439.59;6245068;28;20398;-83
2024/02/09 13:50:39;;;;;;;5.68;2.97;;;;;;;12.20;100.00;98436.31;6244764;28;20045;-85
2024/02/09 13:53:41;;;;;;;7.60;2.72;;;;;;;12.14;100.00;98438.69;6244498;28;20092;-82
2024/02/09 13:56:41;;;;;;;5.38;2.90;;;;;;;12.28;100.00;98435.59;6244939;28;20057;-80
2024/02/09 13:59:42;;;;;;;6.50;3.42;;;;;;;12.36;100.00;98425.25;6253771;28;20136;-83
2024/02/09 14:02:46;;;;;;;9.55;3.03;;;;;;;12.39;100.00;98429.38;6253720;28;20041;-79
2024/02/09 14:05:47;;;;;;;5.18;2.58;;;;;;;12.28;100.00;98419.91;6266084;28;20052;-80
2024/02/09 14:08:50;;;;;;;6.13;2.92;;;;;;;12.43;100.00;98423.69;6261399;28;20049;-82
2024/02/09 14:11:53;;;;;;;6.82;3.28;;;;;;;12.45;100.00;98419.13;6254785;28;20409;-82
2024/02/09 14:14:53;;;;;;;6.22;3.30;;;;;;;12.40;100.00;98418.75;6260242;28;20057;-81
2024/02/09 14:17:55;;;;;;;10.98;3.67;;;;;;;12.38;100.00;98407.63;6268964;28;20126;-83
2024/02/09 14:20:58;;;;;;;11.03;4.80;;;;;;;12.39;100.00;98408.44;6311112;28;20055;-83
2024/02/09 14:24:00;;;;;;;10.98;5.78;;;;;;;12.52;100.00;98418.56;6296510;28;20059;-83
2024/02/09 14:27:06;;;;;;;16.83;8.75;;;;;;;12.54;100.00;98412.22;6318521;28;20083;-84
2024/02/09 14:30:10;;;;;;;8.02;5.10;;;;;;;12.42;100.00;98410.78;6312336;28;20055;-80
2024/02/09 14:33:13;;;;;;;9.43;4.57;;;;;;;12.52;100.00;98402.84;6327744;28;20447;-83
2024/02/09 14:36:17;;;;;;;9.00;4.03;;;;;;;12.49;100.00;98403.97;6306692;28;20484;-82
2024/02/09 14:39:18;;;;;;;9.68;3.38;;;;;;;12.47;100.00;98408.53;6309902;28;20109;-83
2024/02/09 14:42:18;;;;;;;6.60;3.05;;;;;;;12.40;100.00;98407.47;6305276;28;20134;-81
2024/02/09 14:45:19;;;;;;;12.48;3.90;;;;;;;12.45;100.00;98397.41;6323272;28;20055;-83
2024/02/09 14:48:20;;;;;;;10.82;4.32;;;;;;;12.53;100.00;98394.06;6305036;28;20514;-82
2024/02/09 14:51:21;;;;;;;10.60;4.63;;;;;;;12.50;100.00;98389.94;6286936;28;20488;-83
2024/02/09 14:54:22;;;;;;;6.90;3.85;;;;;;;12.40;100.00;98387.38;6286159;28;20102;-83
2024/02/09 14:57:23;;;;;;;12.38;3.95;;;;;;;12.48;100.00;98397.13;6290858;28;20136;-82
2024/02/09 15:00:24;;;;;;;11.65;3.45;;;;;;;12.49;100.00;98389.09;6300538;28;20091;-83
2024/02/09 15:03:24;;;;;;;6.95;3.30;;;;;;;12.35;100.00;98396.63;6287545;28;20499;-83
2024/02/09 15:06:28;;;;;;;10.02;4.63;;;;;;;12.45;100.00;98400.00;6284721;28;20774;-87
2024/02/09 15:09:29;;;;;;;26.67;11.90;;;;;;;12.33;100.00;98375.03;6283491;28;20095;-86
2024/02/09 15:12:29;;;;;;;18.80;8.32;;;;;;;12.43;100.00;98397.53;6288354;28;20131;-82
2024/02/09 15:15:33;;;;;;;19.05;8.75;;;;;;;12.40;100.00;98386.56;6296661;28;20412;-86
2024/02/09 15:18:39;;;;;;;20.42;9.07;;;;;;;12.34;100.00;98387.97;6292332;28;20059;-82
2024/02/09 15:21:41;;;;;;;13.65;6.60;;;;;;;12.34;100.00;98390.56;6304497;28;20502;-82
2024/02/09 15:24:42;;;;;;;9.73;4.90;;;;;;;12.29;100.00;98374.47;6298220;28;20731;-80
2024/02/09 15:27:49;;;;;;;7.68;4.20;;;;;;;12.29;100.00;98384.94;6294047;28;20048;-85
2024/02/09 15:30:50;;;;;;;9.65;3.67;;;;;;;12.26;100.00;98380.84;6292348;28;20048;-87
2024/02/09 15:33:51;;;;;;;6.47;4.03;;;;;;;12.34;100.00;98381.91;6312277;28;20385;-84
2024/02/09 15:36:52;;;;;;;7.80;4.00;;;;;;;12.30;100.00;98384.81;6299814;28;20131;-84
2024/02/09 15:39:53;;;;;;;8.73;3.60;;;;;;;12.16;100.00;98382.66;6298123;28;20055;-79
2024/02/09 15:42:56;;;;;;;9.48;4.05;;;;;;;12.22;100.00;98379.47;6289866;28;20043;-82
2024/02/09 15:45:57;;;;;;;11.13;4.82;;;;;;;12.23;100.00;98386.38;6300604;28;20128;-80
2024/02/09 15:48:58;;;;;;;7.82;3.58;;;;;;;12.28;100.00;98380.69;6320761;28;20056;-80
2024/02/09 15:51:59;;;;;;;10.50;3.80;;;;;;;12.28;100.00;98380.69;6305355;28;20690;-81
2024/02/09 15:55:02;;;;;;;6.82;3.47;;;;;;;12.22;100.00;98391.72;6287472;28;20492;-88
2024/02/09 15:58:03;;;;;;;8.30;3.80;;;;;;;12.11;100.00;98392.75;6289405;28;20103;-82
2024/02/09 16:01:06;;;;;;;8.30;4.00;;;;;;;12.14;100.00;98391.63;6304808;28;20097;-82